createdAt,value
2018-07-23T00:01:26.199Z,8.67
2018-07-23T00:03:55.058Z,9.13
2018-07-23T00:06:23.938Z,8.60
2018-07-23T00:08:52.841Z,8.63
2018-07-23T00:11:21.694Z,9.13
2018-07-23T00:13:50.618Z,9.75
2018-07-23T00:16:19.495Z,10.48
2018-07-23T00:18:48.397Z,9.40
2018-07-23T00:21:17.292Z,8.93
2018-07-23T00:23:46.194Z,8.73
2018-07-23T00:26:15.221Z,8.90
2018-07-23T00:28:44.098Z,9.37
2018-07-23T00:31:13.002Z,9.40
2018-07-23T00:33:41.857Z,10.17
2018-07-23T00:36:10.864Z,10.03
2018-07-23T00:38:39.705Z,10.27
2018-07-23T00:41:08.832Z,8.93
2018-07-23T00:43:37.664Z,9.90
2018-07-23T00:46:06.601Z,9.50
2018-07-23T00:48:35.493Z,9.90
2018-07-23T00:51:04.382Z,9.23
2018-07-23T00:53:33.391Z,10.00
2018-07-23T00:56:02.212Z,9.80
2018-07-23T00:58:31.153Z,9.57
2018-07-23T01:01:00.115Z,9.43
2018-07-23T01:03:28.920Z,8.97
2018-07-23T01:05:57.837Z,9.07
2018-07-23T01:08:28.565Z,10.17
2018-07-23T01:10:57.417Z,9.20
2018-07-23T01:13:26.351Z,9.70
2018-07-23T01:15:55.320Z,9.50
2018-07-23T01:18:24.184Z,9.50
2018-07-23T01:20:53.125Z,9.07
2018-07-23T01:23:21.935Z,9.67
2018-07-23T01:25:50.819Z,9.63
2018-07-23T01:28:19.711Z,9.73
2018-07-23T01:30:48.589Z,9.80
2018-07-23T01:33:17.485Z,9.83
2018-07-23T01:35:46.390Z,10.33
2018-07-23T01:38:15.317Z,10.00
2018-07-23T01:40:44.158Z,9.97
2018-07-23T01:43:13.058Z,10.20
2018-07-23T01:45:41.947Z,10.93
2018-07-23T01:48:10.807Z,10.20
2018-07-23T01:50:39.710Z,9.40
2018-07-23T01:54:05.169Z,9.27
2018-07-23T01:56:34.024Z,9.33
2018-07-23T01:59:02.911Z,9.57
2018-07-23T02:01:31.820Z,10.30
2018-07-23T02:04:00.752Z,9.77
2018-07-23T02:06:29.614Z,9.90
2018-07-23T02:08:58.520Z,9.60
2018-07-23T02:11:27.406Z,9.43
2018-07-23T02:13:56.282Z,9.63
2018-07-23T02:16:26.694Z,9.33
2018-07-23T02:18:55.481Z,9.33
2018-07-23T02:21:24.386Z,9.40
2018-07-23T02:23:53.259Z,9.80
2018-07-23T02:26:22.173Z,10.77
2018-07-23T02:28:51.221Z,9.63
2018-07-23T02:31:20.042Z,10.50
2018-07-23T02:33:49.439Z,9.90
2018-07-23T02:36:18.326Z,9.90
2018-07-23T02:38:47.215Z,9.75
2018-07-23T02:41:16.351Z,9.40
2018-07-23T02:43:45.392Z,9.40
2018-07-23T02:46:14.318Z,9.80
2018-07-23T02:48:43.247Z,10.70
2018-07-23T02:51:12.080Z,9.73
2018-07-23T02:53:40.983Z,10.03
2018-07-23T02:56:09.870Z,10.10
2018-07-23T02:58:38.748Z,10.13
2018-07-23T03:01:07.649Z,10.00
2018-07-23T03:03:36.568Z,10.23
2018-07-23T03:06:05.453Z,10.30
2018-07-23T03:08:34.355Z,10.10
2018-07-23T03:11:03.230Z,10.17
2018-07-23T03:13:32.205Z,9.83
2018-07-23T03:16:01.154Z,11.23
2018-07-23T03:18:29.984Z,11.07
2018-07-23T03:20:58.891Z,9.83
2018-07-23T03:23:27.802Z,10.23
2018-07-23T03:25:56.747Z,10.63
2018-07-23T03:28:25.604Z,11.90
2018-07-23T03:30:54.509Z,10.60
2018-07-23T03:33:23.410Z,11.03
2018-07-23T03:35:52.314Z,11.03
2018-07-23T03:38:21.222Z,9.87
2018-07-23T03:40:50.173Z,10.23
2018-07-23T03:43:18.988Z,10.00
2018-07-23T03:45:49.280Z,9.87
2018-07-23T03:48:18.114Z,9.40
2018-07-23T03:50:47.065Z,9.77
2018-07-23T03:53:16.055Z,10.37
2018-07-23T03:55:45.053Z,9.97
2018-07-23T03:58:14.000Z,9.67
2018-07-23T04:00:42.910Z,9.10
2018-07-23T04:03:11.890Z,8.90
2018-07-23T04:05:40.676Z,9.27
2018-07-23T04:08:09.530Z,9.20
2018-07-23T04:10:38.438Z,9.10
2018-07-23T04:13:07.426Z,9.73
2018-07-23T04:15:36.232Z,9.17
2018-07-23T04:18:05.461Z,9.13
2018-07-23T04:20:37.256Z,11.60
2018-07-23T04:23:06.722Z,10.77
2018-07-23T04:25:35.635Z,9.83
2018-07-23T04:28:04.641Z,10.07
2018-07-23T04:30:33.549Z,9.57
2018-07-23T04:33:02.451Z,9.90
2018-07-23T04:35:31.272Z,10.63
2018-07-23T04:38:00.293Z,13.48
2018-07-23T04:40:29.172Z,10.93
2018-07-23T04:42:57.985Z,10.03
2018-07-23T04:45:26.912Z,12.10
2018-07-23T04:47:55.864Z,11.20
2018-07-23T04:50:24.706Z,11.57
2018-07-23T04:52:53.589Z,13.00
2018-07-23T04:55:22.477Z,11.40
2018-07-23T04:57:51.369Z,12.17
2018-07-23T05:00:20.250Z,10.50
2018-07-23T05:02:49.148Z,10.37
2018-07-23T05:05:18.011Z,10.10
2018-07-23T05:07:46.930Z,10.50
2018-07-23T05:10:15.828Z,9.83
2018-07-23T05:12:44.844Z,10.07
2018-07-23T05:15:13.791Z,11.03
2018-07-23T05:17:42.711Z,9.93
2018-07-23T05:20:11.641Z,11.50
2018-07-23T05:22:40.510Z,13.17
2018-07-23T05:25:09.372Z,13.07
2018-07-23T05:27:38.293Z,11.20
2018-07-23T05:30:07.162Z,15.47
2018-07-23T05:32:36.059Z,16.33
2018-07-23T05:38:36.882Z,16.13
2018-07-23T05:41:05.744Z,15.80
2018-07-23T05:43:34.668Z,16.07
2018-07-23T05:46:03.557Z,17.80
2018-07-23T05:48:32.517Z,17.50
2018-07-23T05:51:01.448Z,17.20
2018-07-23T05:53:30.339Z,17.27
2018-07-23T05:55:59.199Z,17.17
2018-07-23T05:58:28.074Z,18.10
2018-07-23T06:00:56.939Z,18.53
2018-07-23T06:03:25.806Z,18.03
2018-07-23T06:05:54.675Z,17.80
2018-07-23T06:08:23.526Z,17.50
2018-07-23T06:10:52.549Z,17.37
2018-07-23T06:13:21.410Z,15.77
2018-07-23T06:15:50.255Z,14.87
2018-07-23T06:18:19.166Z,14.47
2018-07-23T06:20:48.108Z,12.97
2018-07-23T06:23:16.978Z,12.70
2018-07-23T06:25:45.881Z,11.77
2018-07-23T06:28:14.725Z,11.03
2018-07-23T06:30:43.583Z,9.50
2018-07-23T06:33:12.427Z,9.53
2018-07-23T06:35:41.326Z,8.83
2018-07-23T06:38:10.227Z,8.95
2018-07-23T06:40:39.142Z,8.73
2018-07-23T06:43:14.180Z,7.78
2018-07-23T06:45:43.118Z,7.37
2018-07-23T06:48:12.003Z,6.00
2018-07-23T06:50:40.841Z,5.80
2018-07-23T06:53:09.720Z,6.25
2018-07-23T06:55:38.622Z,5.10
2018-07-23T06:58:07.480Z,5.58
2018-07-23T07:00:36.413Z,5.40
2018-07-23T07:03:05.262Z,5.28
2018-07-23T07:05:34.143Z,5.17
2018-07-23T07:08:02.974Z,5.40
2018-07-23T07:10:31.842Z,4.85
2018-07-23T07:13:00.770Z,5.42
2018-07-23T07:15:29.689Z,5.20
2018-07-23T07:17:58.540Z,5.60
2018-07-23T07:20:27.403Z,5.60
2018-07-23T07:22:56.283Z,6.50
2018-07-23T07:25:25.253Z,6.45
2018-07-23T07:27:54.110Z,6.33
2018-07-23T07:30:22.958Z,6.90
2018-07-23T07:32:51.837Z,6.55
2018-07-23T07:35:20.720Z,6.08
2018-07-23T07:37:49.635Z,6.15
2018-07-23T07:40:18.452Z,6.47
2018-07-23T07:42:47.537Z,5.60
2018-07-23T07:45:16.637Z,7.28
2018-07-23T07:47:45.526Z,6.75
2018-07-23T07:50:14.397Z,7.15
2018-07-23T07:52:43.394Z,8.20
2018-07-23T07:55:12.251Z,8.28
2018-07-23T07:57:41.117Z,7.87
2018-07-23T08:00:09.955Z,8.18
2018-07-23T08:02:38.811Z,7.90
2018-07-23T08:05:07.699Z,7.72
2018-07-23T08:07:36.570Z,8.63
2018-07-23T08:10:05.912Z,9.93
2018-07-23T08:12:38.509Z,8.70
2018-07-23T08:15:07.310Z,7.60
2018-07-23T08:17:36.167Z,7.08
2018-07-23T08:20:05.508Z,5.97
2018-07-23T08:22:34.580Z,8.93
2018-07-23T08:25:03.473Z,7.60
2018-07-23T08:27:32.300Z,7.78
2018-07-23T08:30:01.141Z,8.43
2018-07-23T08:32:30.024Z,6.83
2018-07-23T08:35:02.247Z,6.72
2018-07-23T08:37:31.036Z,8.28
2018-07-23T08:39:59.936Z,7.65
2018-07-23T08:42:28.769Z,8.70
2018-07-23T08:45:00.465Z,8.50
2018-07-23T08:47:29.296Z,7.72
2018-07-23T08:49:58.166Z,9.03
2018-07-23T08:52:27.013Z,7.95
2018-07-23T08:54:55.951Z,8.95
2018-07-23T08:57:24.818Z,7.53
2018-07-23T08:59:53.662Z,7.03
2018-07-23T09:02:22.512Z,7.08
2018-07-23T09:04:51.362Z,6.45
2018-07-23T09:07:20.337Z,6.33
2018-07-23T09:09:49.175Z,7.83
2018-07-23T09:12:18.037Z,6.87
2018-07-23T09:14:46.916Z,6.75
2018-07-23T09:17:15.818Z,6.35
2018-07-23T09:19:44.616Z,6.70
2018-07-23T09:22:13.514Z,7.55
2018-07-23T09:24:42.710Z,7.70
2018-07-23T09:27:11.562Z,7.15
2018-07-23T09:29:40.425Z,7.80
2018-07-23T09:32:09.270Z,6.87
2018-07-23T09:34:38.148Z,6.55
2018-07-23T09:37:07.134Z,6.40
2018-07-23T09:39:48.125Z,6.65
2018-07-23T09:42:16.985Z,6.62
2018-07-23T09:44:45.867Z,6.37
2018-07-23T09:47:14.716Z,6.65
2018-07-23T09:49:43.571Z,6.10
2018-07-23T09:52:12.478Z,5.97
2018-07-23T09:54:41.344Z,5.50
2018-07-23T09:57:10.203Z,5.05
2018-07-23T09:59:39.061Z,4.90
2018-07-23T10:02:07.956Z,5.95
2018-07-23T10:04:36.803Z,5.03
2018-07-23T10:07:05.683Z,4.65
2018-07-23T10:09:34.582Z,5.65
2018-07-23T10:12:03.501Z,5.17
2018-07-23T10:14:32.344Z,5.17
2018-07-23T10:17:01.191Z,4.58
2018-07-23T10:19:30.058Z,4.40
2018-07-23T10:21:59.144Z,5.33
2018-07-23T10:24:34.034Z,5.90
2018-07-23T10:27:02.898Z,5.40
2018-07-23T10:29:31.819Z,4.53
2018-07-23T10:32:00.647Z,4.90
2018-07-23T10:34:29.504Z,4.75
2018-07-23T10:36:58.377Z,6.00
2018-07-23T10:39:27.401Z,5.00
2018-07-23T10:41:56.312Z,5.30
2018-07-23T10:44:25.221Z,5.70
2018-07-23T10:48:04.147Z,4.65
2018-07-23T10:50:33.088Z,4.92
2018-07-23T10:53:01.900Z,5.35
2018-07-23T10:55:30.793Z,4.45
2018-07-23T10:57:59.678Z,5.40
2018-07-23T11:00:28.525Z,4.80
2018-07-23T11:02:57.341Z,4.78
2018-07-23T11:05:26.250Z,4.28
2018-07-23T11:07:55.109Z,3.40
2018-07-23T11:10:23.986Z,4.03
2018-07-23T11:12:52.864Z,4.35
2018-07-23T11:15:21.762Z,4.25
2018-07-23T11:17:50.573Z,4.37
2018-07-23T11:20:19.420Z,5.62
2018-07-23T11:22:48.361Z,4.95
2018-07-23T11:25:38.810Z,4.40
2018-07-23T11:27:46.080Z,5.15
2018-07-23T11:30:14.955Z,4.42
2018-07-23T11:32:43.859Z,4.55
2018-07-23T11:35:12.630Z,4.78
2018-07-23T11:37:41.517Z,4.53
2018-07-23T11:40:10.400Z,4.75
2018-07-23T11:42:39.322Z,5.20
2018-07-23T11:45:08.420Z,5.25
2018-07-23T11:47:37.231Z,4.75
2018-07-23T11:50:06.102Z,4.80
2018-07-23T11:52:37.018Z,3.95
2018-07-23T11:55:05.899Z,4.42
2018-07-23T11:57:34.760Z,4.35
2018-07-23T12:00:03.714Z,4.40
2018-07-23T12:02:32.596Z,4.08
2018-07-23T12:05:01.540Z,4.70
2018-07-23T12:07:30.370Z,4.42
2018-07-23T12:09:59.190Z,4.08
2018-07-23T12:12:28.132Z,4.10
2018-07-23T12:14:56.998Z,4.25
2018-07-23T12:17:25.952Z,3.90
2018-07-23T12:19:54.736Z,4.83
2018-07-23T12:22:23.607Z,4.47
2018-07-23T12:24:52.474Z,4.55
2018-07-23T12:27:21.338Z,4.80
2018-07-23T12:29:50.231Z,4.97
2018-07-23T12:32:19.090Z,4.90
2018-07-23T12:34:47.912Z,4.45
2018-07-23T12:37:22.977Z,4.47
2018-07-23T12:39:51.965Z,5.22
2018-07-23T12:42:20.735Z,5.55
2018-07-23T12:44:49.601Z,4.45
2018-07-23T12:47:18.533Z,4.47
2018-07-23T12:49:47.383Z,4.60
2018-07-23T12:52:16.252Z,4.53
2018-07-23T12:54:45.118Z,4.50
2018-07-23T12:57:14.004Z,4.95
2018-07-23T12:59:42.890Z,4.25
2018-07-23T13:02:11.712Z,5.08
2018-07-23T13:04:40.597Z,4.65
2018-07-23T13:07:09.418Z,5.00
2018-07-23T13:09:38.314Z,4.65
2018-07-23T13:12:07.199Z,4.50
2018-07-23T13:14:36.054Z,4.33
2018-07-23T13:17:04.921Z,4.55
2018-07-23T13:19:33.779Z,4.45
2018-07-23T13:22:02.660Z,4.25
2018-07-23T13:24:31.552Z,4.60
2018-07-23T13:27:00.408Z,4.00
2018-07-23T13:29:29.329Z,4.20
2018-07-23T13:31:58.181Z,4.40
2018-07-23T13:34:27.015Z,4.00
2018-07-23T13:36:55.874Z,3.72
2018-07-23T13:39:24.782Z,3.87
2018-07-23T13:42:00.651Z,4.12
2018-07-23T13:44:29.438Z,4.17
2018-07-23T13:46:58.387Z,4.00
2018-07-23T13:49:27.274Z,3.80
2018-07-23T13:51:56.224Z,4.20
2018-07-23T13:54:25.176Z,4.03
2018-07-23T13:56:53.961Z,3.87
2018-07-23T13:59:22.935Z,4.15
2018-07-23T14:01:51.838Z,4.05
2018-07-23T14:04:20.634Z,4.20
2018-07-23T14:06:49.459Z,3.80
2018-07-23T14:09:18.312Z,4.12
2018-07-23T14:11:47.191Z,4.05
2018-07-23T14:14:16.043Z,3.95
2018-07-23T14:16:44.889Z,3.83
2018-07-23T14:19:13.786Z,3.60
2018-07-23T14:21:42.657Z,4.00
2018-07-23T14:24:11.498Z,4.08
2018-07-23T14:27:35.308Z,3.52
2018-07-23T14:30:04.161Z,3.35
2018-07-23T14:32:33.050Z,3.85
2018-07-23T14:35:01.929Z,3.45
2018-07-23T14:37:30.770Z,3.77
2018-07-23T14:39:59.617Z,3.45
2018-07-23T14:42:28.670Z,3.40
2018-07-23T14:44:57.578Z,4.03
2018-07-23T14:47:26.452Z,3.50
2018-07-23T14:50:31.100Z,3.98
2018-07-23T14:52:59.984Z,3.90
2018-07-23T14:55:28.967Z,4.37
2018-07-23T14:57:57.805Z,4.50
2018-07-23T15:00:26.679Z,4.45
2018-07-23T15:02:55.586Z,4.55
2018-07-23T15:05:24.481Z,4.25
2018-07-23T15:07:53.397Z,4.55
2018-07-23T15:10:22.405Z,4.37
2018-07-23T15:12:58.753Z,4.33
2018-07-23T15:15:27.600Z,4.80
2018-07-23T15:17:56.502Z,4.80
2018-07-23T15:20:25.355Z,4.15
2018-07-23T15:22:54.180Z,4.33
2018-07-23T15:25:23.062Z,4.30
2018-07-23T15:27:51.983Z,4.92
2018-07-23T15:30:20.825Z,4.50
2018-07-23T15:32:49.670Z,4.40
2018-07-23T15:35:19.814Z,4.65
2018-07-23T15:37:48.637Z,4.20
2018-07-23T15:40:17.529Z,4.40
2018-07-23T15:42:46.547Z,4.20
2018-07-23T15:45:15.448Z,4.22
2018-07-23T15:47:44.195Z,4.12
2018-07-23T15:50:13.069Z,4.72
2018-07-23T15:52:41.908Z,4.42
2018-07-23T15:55:10.762Z,4.30
2018-07-23T15:58:34.252Z,3.95
2018-07-23T16:01:03.126Z,4.28
2018-07-23T16:03:31.949Z,4.10
2018-07-23T16:06:00.985Z,4.00
2018-07-23T16:08:29.817Z,4.50
2018-07-23T16:10:58.723Z,4.45
2018-07-23T16:13:27.569Z,4.42
2018-07-23T16:15:56.397Z,4.25
2018-07-23T16:18:25.261Z,4.20
2018-07-23T16:20:54.114Z,4.33
2018-07-23T16:23:22.998Z,4.35
2018-07-23T16:25:51.803Z,4.50
2018-07-23T16:28:20.652Z,4.83
2018-07-23T16:30:49.599Z,4.40
2018-07-23T16:33:18.437Z,4.40
2018-07-23T16:35:47.278Z,4.97
2018-07-23T16:38:16.213Z,4.90
2018-07-23T16:40:44.990Z,4.62
2018-07-23T16:43:13.932Z,4.60
2018-07-23T16:45:42.787Z,4.45
2018-07-23T16:48:11.667Z,4.78
2018-07-23T16:50:40.537Z,4.40
2018-07-23T16:53:09.355Z,4.47
2018-07-23T16:55:38.233Z,4.78
2018-07-23T16:58:07.128Z,4.67
2018-07-23T17:00:36.019Z,4.80
2018-07-23T17:03:05.245Z,4.70
2018-07-23T17:05:39.018Z,4.90
2018-07-23T17:08:11.921Z,4.65
2018-07-23T17:10:45.261Z,4.95
2018-07-23T17:13:18.081Z,4.30
2018-07-23T17:15:50.827Z,4.42
2018-07-23T17:18:22.910Z,4.12
2018-07-23T17:20:51.733Z,4.30
2018-07-23T17:23:20.592Z,4.80
2018-07-23T17:25:49.594Z,4.33
2018-07-23T17:28:18.465Z,4.20
2018-07-23T17:30:47.313Z,3.92
2018-07-23T17:33:16.173Z,4.60
2018-07-23T17:35:45.054Z,4.05
2018-07-23T17:38:13.894Z,4.00
2018-07-23T17:40:42.804Z,4.37
2018-07-23T17:43:11.633Z,4.30
2018-07-23T17:45:40.464Z,4.60
2018-07-23T17:48:09.392Z,4.58
2018-07-23T17:50:38.224Z,4.40
2018-07-23T17:53:07.097Z,4.22
2018-07-23T17:55:35.960Z,4.67
2018-07-23T17:58:04.837Z,4.80
2018-07-23T18:00:33.802Z,4.00
2018-07-23T18:03:02.719Z,4.90
2018-07-23T18:05:31.739Z,4.40
2018-07-23T18:08:00.647Z,4.50
2018-07-23T18:10:31.064Z,5.00
2018-07-23T18:12:59.944Z,4.70
2018-07-23T18:15:28.835Z,4.50
2018-07-23T18:17:57.693Z,4.65
2018-07-23T18:20:26.558Z,4.37
2018-07-23T18:22:55.443Z,4.42
2018-07-23T18:25:24.312Z,4.72
2018-07-23T18:27:53.269Z,4.83
2018-07-23T18:30:22.120Z,5.05
2018-07-23T18:32:51.283Z,4.60
2018-07-23T18:35:20.175Z,4.70
2018-07-23T18:37:49.143Z,4.83
2018-07-23T18:40:17.982Z,5.00
2018-07-23T18:42:46.927Z,4.67
2018-07-23T18:45:15.909Z,4.55
2018-07-23T18:47:45.123Z,4.65
2018-07-23T18:50:13.836Z,4.80
2018-07-23T18:52:42.717Z,4.75
2018-07-23T18:55:11.642Z,5.10
2018-07-23T18:57:40.524Z,4.37
2018-07-23T19:00:09.483Z,4.62
2018-07-23T19:02:38.266Z,4.92
2018-07-23T19:05:07.198Z,5.08
2018-07-23T19:07:36.097Z,4.50
2018-07-23T19:10:07.766Z,4.65
2018-07-23T19:12:36.817Z,4.50
2018-07-23T19:15:05.998Z,4.72
2018-07-23T19:17:35.100Z,5.00
2018-07-23T19:20:04.083Z,4.72
2018-07-23T19:22:32.887Z,4.42
2018-07-23T19:25:01.754Z,4.72
2018-07-23T19:27:30.691Z,4.15
2018-07-23T19:29:59.567Z,4.67
2018-07-23T19:32:28.360Z,4.17
2018-07-23T19:34:57.273Z,4.37
2018-07-23T19:37:29.292Z,4.45
2018-07-23T19:39:58.068Z,4.22
2018-07-23T19:42:27.015Z,4.10
2018-07-23T19:44:55.846Z,3.92
2018-07-23T19:47:24.707Z,3.30
2018-07-23T19:49:53.780Z,3.30
2018-07-23T19:52:22.715Z,2.60
2018-07-23T19:54:51.806Z,2.62
2018-07-23T19:57:20.648Z,3.02
2018-07-23T19:59:49.619Z,2.80
2018-07-23T20:02:18.395Z,2.70
2018-07-23T20:04:47.243Z,3.10
2018-07-23T20:07:16.077Z,2.90
2018-07-23T20:09:44.919Z,3.05
2018-07-23T20:12:13.805Z,2.60
2018-07-23T20:14:42.611Z,2.85
2018-07-23T20:17:11.528Z,2.83
2018-07-23T20:19:40.480Z,2.80
2018-07-23T20:22:10.534Z,3.00
2018-07-23T20:24:39.492Z,2.72
2018-07-23T20:27:08.313Z,2.70
2018-07-23T20:29:37.220Z,3.20
2018-07-23T20:32:06.108Z,3.05
2018-07-23T20:34:34.956Z,3.08
2018-07-23T20:37:03.850Z,2.47
2018-07-23T20:39:32.800Z,2.87
2018-07-23T20:42:01.605Z,2.80
2018-07-23T20:44:33.293Z,3.17
2018-07-23T20:47:02.178Z,2.83
2018-07-23T20:49:31.036Z,2.90
2018-07-23T20:51:59.905Z,3.10
2018-07-23T20:54:28.760Z,2.85
2018-07-23T20:56:57.592Z,2.55
2018-07-23T20:59:26.471Z,2.80
2018-07-23T21:01:55.361Z,3.12
2018-07-23T21:04:24.231Z,3.10
2018-07-23T21:06:53.082Z,3.12
2018-07-23T21:09:21.983Z,2.95
2018-07-23T21:11:50.809Z,3.08
2018-07-23T21:14:19.670Z,3.00
2018-07-23T21:16:48.564Z,3.00
2018-07-23T21:19:17.452Z,3.08
2018-07-23T21:21:46.342Z,2.80
2018-07-23T21:24:15.233Z,3.10
2018-07-23T21:26:44.079Z,3.58
2018-07-23T21:29:16.541Z,3.40
2018-07-23T21:31:45.483Z,3.10
2018-07-23T21:34:14.307Z,2.80
2018-07-23T21:36:43.190Z,2.90
2018-07-23T21:39:12.072Z,3.10
2018-07-23T21:41:41.033Z,3.20
2018-07-23T21:44:09.841Z,2.98
2018-07-23T21:46:38.721Z,3.17
2018-07-23T21:49:07.635Z,3.47
2018-07-23T21:51:36.640Z,2.98
2018-07-23T21:54:05.964Z,2.92
2018-07-23T21:56:34.796Z,3.10
2018-07-23T21:59:03.749Z,3.02
2018-07-23T22:01:32.689Z,3.27
2018-07-23T22:04:01.578Z,3.30
2018-07-23T22:06:30.445Z,3.40
2018-07-23T22:08:59.300Z,3.40
2018-07-23T22:11:28.235Z,3.40
2018-07-23T22:13:57.059Z,3.33
2018-07-23T22:16:25.990Z,3.35
2018-07-23T22:18:54.863Z,3.27
2018-07-23T22:21:23.722Z,3.15
2018-07-23T22:23:52.607Z,3.60
2018-07-23T22:26:21.565Z,3.20
2018-07-23T22:28:50.466Z,3.53
2018-07-23T22:31:19.373Z,3.73
2018-07-23T22:33:48.509Z,3.40
2018-07-23T22:36:17.805Z,3.17
2018-07-23T22:38:46.710Z,3.43
2018-07-23T22:41:15.649Z,3.77
2018-07-23T22:43:44.612Z,3.70
2018-07-23T22:46:13.483Z,3.30
2018-07-23T22:48:42.376Z,3.70
2018-07-23T22:51:11.211Z,3.77
2018-07-23T22:53:40.081Z,4.00
2018-07-23T22:56:08.901Z,3.83
2018-07-23T22:58:37.930Z,3.57
2018-07-23T23:01:06.972Z,3.53
2018-07-23T23:03:35.882Z,3.77
2018-07-23T23:06:05.038Z,3.50
2018-07-23T23:08:33.982Z,4.17
2018-07-23T23:11:02.808Z,3.70
2018-07-23T23:13:31.757Z,3.50
2018-07-23T23:16:00.690Z,3.80
2018-07-23T23:18:29.567Z,3.60
2018-07-23T23:20:58.469Z,3.80
2018-07-23T23:23:27.644Z,3.50
2018-07-23T23:25:56.615Z,3.50
2018-07-23T23:28:25.485Z,3.97
2018-07-23T23:30:54.347Z,4.07
2018-07-23T23:33:23.234Z,3.63
2018-07-23T23:35:52.176Z,3.73
2018-07-23T23:38:21.045Z,3.27
2018-07-23T23:40:52.792Z,3.70
2018-07-23T23:43:21.661Z,3.53
2018-07-23T23:45:50.526Z,3.60
2018-07-23T23:48:19.449Z,3.47
2018-07-23T23:50:48.291Z,3.63
2018-07-23T23:53:17.172Z,3.27
2018-07-23T23:55:46.196Z,4.12
2018-07-23T23:58:15.060Z,4.10
